sensor_id;sensor_type;location;lat;lon;timestamp;temperature;humidity
12289;DHT22;6207;49.308;7.336;2023-03-12T00:02:08;-2.10;99.90
12289;DHT22;6207;49.308;7.336;2023-03-12T00:04:35;-2.20;99.90
12289;DHT22;6207;49.308;7.336;2023-03-12T00:07:02;-2.20;99.90
12289;DHT22;6207;49.308;7.336;2023-03-12T00:09:36;-2.20;99.90
12289;DHT22;6207;49.308;7.336;2023-03-12T00:12:03;-2.30;99.90
12289;DHT22;6207;49.308;7.336;2023-03-12T00:14:31;-2.40;99.90
12289;DHT22;6207;49.308;7.336;2023-03-12T00:16:58;-2.30;99.90
12289;DHT22;6207;49.308;7.336;2023-03-12T00:19:25;-2.30;99.90
12289;DHT22;6207;49.308;7.336;2023-03-12T00:21:51;-2.40;99.90
12289;DHT22;6207;49.308;7.336;2023-03-12T00:24:18;-2.40;99.90
12289;DHT22;6207;49.308;7.336;2023-03-12T00:26:45;-2.40;99.90
12289;DHT22;6207;49.308;7.336;2023-03-12T00:29:12;-2.50;99.90
12289;DHT22;6207;49.308;7.336;2023-03-12T00:31:39;-2.50;99.90
12289;DHT22;6207;49.308;7.336;2023-03-12T00:34:06;-2.50;99.90
12289;DHT22;6207;49.308;7.336;2023-03-12T00:36:32;-2.50;99.90
12289;DHT22;6207;49.308;7.336;2023-03-12T00:39:00;-2.50;99.90
12289;DHT22;6207;49.308;7.336;2023-03-12T00:41:27;-2.50;99.90
12289;DHT22;6207;49.308;7.336;2023-03-12T00:43:54;-2.30;99.90
12289;DHT22;6207;49.308;7.336;2023-03-12T00:46:21;-2.20;99.90
12289;DHT22;6207;49.308;7.336;2023-03-12T00:48:48;-2.20;99.90
12289;DHT22;6207;49.308;7.336;2023-03-12T00:51:15;-2.10;99.90
12289;DHT22;6207;49.308;7.336;2023-03-12T00:53:42;-2.00;99.90
12289;DHT22;6207;49.308;7.336;2023-03-12T00:56:08;-2.00;99.90
12289;DHT22;6207;49.308;7.336;2023-03-12T00:58:35;-1.90;99.90
12289;DHT22;6207;49.308;7.336;2023-03-12T01:01:02;-1.80;99.90
12289;DHT22;6207;49.308;7.336;2023-03-12T01:03:29;-1.80;99.90
12289;DHT22;6207;49.308;7.336;2023-03-12T01:05:56;-1.70;99.90
12289;DHT22;6207;49.308;7.336;2023-03-12T01:08:23;-1.70;99.90
12289;DHT22;6207;49.308;7.336;2023-03-12T01:10:50;-1.70;99.90
12289;DHT22;6207;49.308;7.336;2023-03-12T01:13:17;-1.60;99.90
12289;DHT22;6207;49.308;7.336;2023-03-12T01:15:44;-1.60;99.90
12289;DHT22;6207;49.308;7.336;2023-03-12T01:18:10;-1.50;99.90
12289;DHT22;6207;49.308;7.336;2023-03-12T01:20:37;-1.40;99.90
12289;DHT22;6207;49.308;7.336;2023-03-12T01:23:06;-1.30;99.90
12289;DHT22;6207;49.308;7.336;2023-03-12T01:25:34;-1.30;99.90
12289;DHT22;6207;49.308;7.336;2023-03-12T01:28:01;-1.20;99.90
12289;DHT22;6207;49.308;7.336;2023-03-12T01:30:28;-1.20;99.90
12289;DHT22;6207;49.308;7.336;2023-03-12T01:32:55;-1.20;99.90
12289;DHT22;6207;49.308;7.336;2023-03-12T01:35:22;-1.10;99.90
12289;DHT22;6207;49.308;7.336;2023-03-12T01:37:48;-1.10;99.90
12289;DHT22;6207;49.308;7.336;2023-03-12T01:40:20;-1.10;99.90
12289;DHT22;6207;49.308;7.336;2023-03-12T01:42:55;-1.10;99.90
12289;DHT22;6207;49.308;7.336;2023-03-12T01:48:29;-1.00;99.90
12289;DHT22;6207;49.308;7.336;2023-03-12T01:50:58;-1.00;99.90
12289;DHT22;6207;49.308;7.336;2023-03-12T01:53:26;-1.00;99.90
12289;DHT22;6207;49.308;7.336;2023-03-12T01:55:53;-1.00;99.90
12289;DHT22;6207;49.308;7.336;2023-03-12T01:58:20;-0.90;99.90
12289;DHT22;6207;49.308;7.336;2023-03-12T02:00:47;-0.90;99.90
12289;DHT22;6207;49.308;7.336;2023-03-12T02:03:14;-0.90;99.90
12289;DHT22;6207;49.308;7.336;2023-03-12T02:05:52;-1.00;99.90
12289;DHT22;6207;49.308;7.336;2023-03-12T02:08:21;-1.00;99.90
12289;DHT22;6207;49.308;7.336;2023-03-12T02:10:49;-0.90;99.90
12289;DHT22;6207;49.308;7.336;2023-03-12T02:13:16;-0.90;99.90
12289;DHT22;6207;49.308;7.336;2023-03-12T02:15:43;-0.80;99.90
12289;DHT22;6207;49.308;7.336;2023-03-12T02:18:15;-0.80;99.90
12289;DHT22;6207;49.308;7.336;2023-03-12T02:21:12;-0.80;99.90
12289;DHT22;6207;49.308;7.336;2023-03-12T02:23:40;-0.70;99.90
12289;DHT22;6207;49.308;7.336;2023-03-12T02:26:09;-0.50;99.90
12289;DHT22;6207;49.308;7.336;2023-03-12T02:28:38;-0.60;99.90
12289;DHT22;6207;49.308;7.336;2023-03-12T02:31:12;-0.60;99.90
12289;DHT22;6207;49.308;7.336;2023-03-12T02:33:40;-0.50;99.90
12289;DHT22;6207;49.308;7.336;2023-03-12T02:36:07;-0.50;99.90
12289;DHT22;6207;49.308;7.336;2023-03-12T02:38:48;-0.60;99.90
12289;DHT22;6207;49.308;7.336;2023-03-12T02:41:30;-0.50;99.90
12289;DHT22;6207;49.308;7.336;2023-03-12T02:44:12;-0.50;99.90
12289;DHT22;6207;49.308;7.336;2023-03-12T02:46:46;-0.40;99.90
12289;DHT22;6207;49.308;7.336;2023-03-12T02:49:13;-0.40;99.90
12289;DHT22;6207;49.308;7.336;2023-03-12T02:51:42;-0.40;99.90
12289;DHT22;6207;49.308;7.336;2023-03-12T02:54:09;-0.40;99.90
12289;DHT22;6207;49.308;7.336;2023-03-12T02:56:36;-0.40;99.90
12289;DHT22;6207;49.308;7.336;2023-03-12T02:59:04;-0.40;99.90
12289;DHT22;6207;49.308;7.336;2023-03-12T03:01:31;-0.40;99.90
12289;DHT22;6207;49.308;7.336;2023-03-12T03:04:01;-0.10;99.90
12289;DHT22;6207;49.308;7.336;2023-03-12T03:06:28;-0.30;99.90
12289;DHT22;6207;49.308;7.336;2023-03-12T03:08:55;-0.30;99.90
12289;DHT22;6207;49.308;7.336;2023-03-12T03:11:22;-0.30;99.90
12289;DHT22;6207;49.308;7.336;2023-03-12T03:13:54;-0.30;99.90
12289;DHT22;6207;49.308;7.336;2023-03-12T03:16:21;-0.40;99.90
12289;DHT22;6207;49.308;7.336;2023-03-12T03:18:48;-0.30;99.90
12289;DHT22;6207;49.308;7.336;2023-03-12T03:21:15;-0.40;99.90
12289;DHT22;6207;49.308;7.336;2023-03-12T03:23:46;-0.30;99.90
12289;DHT22;6207;49.308;7.336;2023-03-12T03:26:15;-0.30;99.90
12289;DHT22;6207;49.308;7.336;2023-03-12T03:28:42;-0.30;99.90
12289;DHT22;6207;49.308;7.336;2023-03-12T03:31:08;-0.30;99.90
12289;DHT22;6207;49.308;7.336;2023-03-12T03:33:36;-0.30;99.90
12289;DHT22;6207;49.308;7.336;2023-03-12T03:36:04;-0.30;99.90
12289;DHT22;6207;49.308;7.336;2023-03-12T03:38:32;-0.30;99.90
12289;DHT22;6207;49.308;7.336;2023-03-12T03:41:00;-0.20;99.90
12289;DHT22;6207;49.308;7.336;2023-03-12T03:43:27;-0.30;99.90
12289;DHT22;6207;49.308;7.336;2023-03-12T03:45:59;-0.20;99.90
12289;DHT22;6207;49.308;7.336;2023-03-12T03:48:27;-0.30;99.90
12289;DHT22;6207;49.308;7.336;2023-03-12T03:50:54;-0.30;99.90
12289;DHT22;6207;49.308;7.336;2023-03-12T03:53:24;-0.30;99.90
12289;DHT22;6207;49.308;7.336;2023-03-12T03:55:51;-0.30;99.90
12289;DHT22;6207;49.308;7.336;2023-03-12T03:58:18;-0.40;99.90
12289;DHT22;6207;49.308;7.336;2023-03-12T04:00:45;-0.50;99.90
12289;DHT22;6207;49.308;7.336;2023-03-12T04:03:12;-0.50;99.90
12289;DHT22;6207;49.308;7.336;2023-03-12T04:05:40;-0.50;99.90
12289;DHT22;6207;49.308;7.336;2023-03-12T04:08:11;-0.40;99.90
12289;DHT22;6207;49.308;7.336;2023-03-12T04:10:38;-0.30;99.90
12289;DHT22;6207;49.308;7.336;2023-03-12T04:13:05;-0.30;99.90
12289;DHT22;6207;49.308;7.336;2023-03-12T04:15:32;-0.30;99.90
12289;DHT22;6207;49.308;7.336;2023-03-12T04:17:59;-0.30;99.90
12289;DHT22;6207;49.308;7.336;2023-03-12T04:20:26;-0.30;99.90
12289;DHT22;6207;49.308;7.336;2023-03-12T04:22:53;-0.40;99.90
12289;DHT22;6207;49.308;7.336;2023-03-12T04:25:20;-0.30;99.90
12289;DHT22;6207;49.308;7.336;2023-03-12T04:27:47;-0.30;99.90
12289;DHT22;6207;49.308;7.336;2023-03-12T04:30:14;-0.30;99.90
12289;DHT22;6207;49.308;7.336;2023-03-12T04:32:41;-0.30;99.90
12289;DHT22;6207;49.308;7.336;2023-03-12T04:35:08;-0.20;99.90
12289;DHT22;6207;49.308;7.336;2023-03-12T04:37:34;-0.20;99.90
12289;DHT22;6207;49.308;7.336;2023-03-12T04:40:02;-0.20;99.90
12289;DHT22;6207;49.308;7.336;2023-03-12T04:42:34;-0.20;99.90
12289;DHT22;6207;49.308;7.336;2023-03-12T04:45:03;-0.20;99.90
12289;DHT22;6207;49.308;7.336;2023-03-12T04:47:31;-0.20;99.90
12289;DHT22;6207;49.308;7.336;2023-03-12T04:49:58;-0.20;99.90
12289;DHT22;6207;49.308;7.336;2023-03-12T04:52:26;-0.20;99.90
12289;DHT22;6207;49.308;7.336;2023-03-12T04:54:53;-0.20;99.90
12289;DHT22;6207;49.308;7.336;2023-03-12T04:57:20;-0.10;99.90
12289;DHT22;6207;49.308;7.336;2023-03-12T04:59:47;-0.10;99.90
12289;DHT22;6207;49.308;7.336;2023-03-12T05:02:13;-0.10;99.90
12289;DHT22;6207;49.308;7.336;2023-03-12T05:04:40;-0.10;99.90
12289;DHT22;6207;49.308;7.336;2023-03-12T05:07:07;-0.10;99.90
12289;DHT22;6207;49.308;7.336;2023-03-12T05:09:34;-0.10;99.90
12289;DHT22;6207;49.308;7.336;2023-03-12T05:12:00;0.00;99.90
12289;DHT22;6207;49.308;7.336;2023-03-12T05:14:27;-0.10;99.90
12289;DHT22;6207;49.308;7.336;2023-03-12T05:16:54;-0.10;99.90
12289;DHT22;6207;49.308;7.336;2023-03-12T05:19:20;0.00;99.90
12289;DHT22;6207;49.308;7.336;2023-03-12T05:21:47;0.00;99.90
12289;DHT22;6207;49.308;7.336;2023-03-12T05:24:14;0.00;99.90
12289;DHT22;6207;49.308;7.336;2023-03-12T05:26:41;0.00;99.90
12289;DHT22;6207;49.308;7.336;2023-03-12T05:29:08;0.10;99.90
12289;DHT22;6207;49.308;7.336;2023-03-12T05:31:35;0.10;99.90
12289;DHT22;6207;49.308;7.336;2023-03-12T05:34:03;0.00;99.90
12289;DHT22;6207;49.308;7.336;2023-03-12T05:36:30;0.00;99.90
12289;DHT22;6207;49.308;7.336;2023-03-12T05:38:56;0.00;99.90
12289;DHT22;6207;49.308;7.336;2023-03-12T05:41:28;0.00;99.90
12289;DHT22;6207;49.308;7.336;2023-03-12T05:43:55;0.00;99.90
12289;DHT22;6207;49.308;7.336;2023-03-12T05:46:24;0.20;99.90
12289;DHT22;6207;49.308;7.336;2023-03-12T05:48:51;0.00;99.90
12289;DHT22;6207;49.308;7.336;2023-03-12T05:51:18;0.10;99.90
12289;DHT22;6207;49.308;7.336;2023-03-12T05:53:45;0.00;99.90
12289;DHT22;6207;49.308;7.336;2023-03-12T05:56:15;0.10;99.90
12289;DHT22;6207;49.308;7.336;2023-03-12T05:58:41;0.00;99.90
12289;DHT22;6207;49.308;7.336;2023-03-12T06:01:24;0.00;99.90
12289;DHT22;6207;49.308;7.336;2023-03-12T06:03:51;0.10;99.90
12289;DHT22;6207;49.308;7.336;2023-03-12T06:06:18;0.10;99.90
12289;DHT22;6207;49.308;7.336;2023-03-12T06:08:45;0.10;99.90
12289;DHT22;6207;49.308;7.336;2023-03-12T06:11:12;0.10;99.90
12289;DHT22;6207;49.308;7.336;2023-03-12T06:13:39;0.10;99.90
12289;DHT22;6207;49.308;7.336;2023-03-12T06:16:18;0.10;99.90
12289;DHT22;6207;49.308;7.336;2023-03-12T06:18:45;0.00;99.90
12289;DHT22;6207;49.308;7.336;2023-03-12T06:23:40;0.00;99.90
12289;DHT22;6207;49.308;7.336;2023-03-12T06:26:08;0.00;99.90
12289;DHT22;6207;49.308;7.336;2023-03-12T06:28:35;0.10;99.90
12289;DHT22;6207;49.308;7.336;2023-03-12T06:31:03;0.00;99.90
12289;DHT22;6207;49.308;7.336;2023-03-12T06:33:30;0.10;99.90
12289;DHT22;6207;49.308;7.336;2023-03-12T06:36:00;0.10;99.90
12289;DHT22;6207;49.308;7.336;2023-03-12T06:38:28;0.10;99.90
12289;DHT22;6207;49.308;7.336;2023-03-12T06:41:05;0.20;99.90
12289;DHT22;6207;49.308;7.336;2023-03-12T06:43:33;0.20;99.90
12289;DHT22;6207;49.308;7.336;2023-03-12T06:46:01;0.20;99.90
12289;DHT22;6207;49.308;7.336;2023-03-12T06:48:30;0.30;99.90
12289;DHT22;6207;49.308;7.336;2023-03-12T06:50:59;0.30;99.90
12289;DHT22;6207;49.308;7.336;2023-03-12T06:53:25;0.30;99.90
12289;DHT22;6207;49.308;7.336;2023-03-12T06:55:52;0.30;99.90
12289;DHT22;6207;49.308;7.336;2023-03-12T06:58:19;0.30;99.90
12289;DHT22;6207;49.308;7.336;2023-03-12T07:00:46;0.40;99.90
12289;DHT22;6207;49.308;7.336;2023-03-12T07:03:13;0.40;99.90
12289;DHT22;6207;49.308;7.336;2023-03-12T07:05:43;0.50;99.90
12289;DHT22;6207;49.308;7.336;2023-03-12T07:08:10;0.50;99.90
12289;DHT22;6207;49.308;7.336;2023-03-12T07:10:37;0.50;99.90
12289;DHT22;6207;49.308;7.336;2023-03-12T07:13:05;0.50;99.90
12289;DHT22;6207;49.308;7.336;2023-03-12T07:15:32;0.60;99.90
12289;DHT22;6207;49.308;7.336;2023-03-12T07:18:02;0.50;99.90
12289;DHT22;6207;49.308;7.336;2023-03-12T07:20:29;0.60;99.90
12289;DHT22;6207;49.308;7.336;2023-03-12T07:22:56;1.00;99.90
12289;DHT22;6207;49.308;7.336;2023-03-12T07:25:22;0.70;99.90
12289;DHT22;6207;49.308;7.336;2023-03-12T07:27:49;0.70;99.90
12289;DHT22;6207;49.308;7.336;2023-03-12T07:30:16;0.80;99.90
12289;DHT22;6207;49.308;7.336;2023-03-12T07:32:43;0.80;99.90
12289;DHT22;6207;49.308;7.336;2023-03-12T07:35:09;0.90;99.90
12289;DHT22;6207;49.308;7.336;2023-03-12T07:37:36;0.90;99.90
12289;DHT22;6207;49.308;7.336;2023-03-12T07:40:03;0.90;99.90
12289;DHT22;6207;49.308;7.336;2023-03-12T07:42:34;1.00;99.90
12289;DHT22;6207;49.308;7.336;2023-03-12T07:45:00;1.10;99.90
12289;DHT22;6207;49.308;7.336;2023-03-12T07:47:27;1.10;99.90
12289;DHT22;6207;49.308;7.336;2023-03-12T07:49:54;1.30;99.90
12289;DHT22;6207;49.308;7.336;2023-03-12T07:52:21;1.00;99.90
12289;DHT22;6207;49.308;7.336;2023-03-12T07:54:49;1.00;99.90
12289;DHT22;6207;49.308;7.336;2023-03-12T07:57:18;1.10;99.90
12289;DHT22;6207;49.308;7.336;2023-03-12T07:59:45;1.00;99.90
12289;DHT22;6207;49.308;7.336;2023-03-12T08:02:13;1.10;99.90
12289;DHT22;6207;49.308;7.336;2023-03-12T08:04:40;1.20;99.90
12289;DHT22;6207;49.308;7.336;2023-03-12T08:07:07;1.40;99.90
12289;DHT22;6207;49.308;7.336;2023-03-12T08:09:35;1.40;99.90
12289;DHT22;6207;49.308;7.336;2023-03-12T08:15:52;1.50;99.90
12289;DHT22;6207;49.308;7.336;2023-03-12T08:18:20;1.60;99.90
12289;DHT22;6207;49.308;7.336;2023-03-12T08:20:50;1.60;99.90
12289;DHT22;6207;49.308;7.336;2023-03-12T08:23:17;1.80;99.90
12289;DHT22;6207;49.308;7.336;2023-03-12T08:25:46;1.60;99.90
12289;DHT22;6207;49.308;7.336;2023-03-12T08:28:13;1.60;99.90
12289;DHT22;6207;49.308;7.336;2023-03-12T08:30:48;1.80;99.90
12289;DHT22;6207;49.308;7.336;2023-03-12T08:33:15;1.80;99.90
12289;DHT22;6207;49.308;7.336;2023-03-12T08:35:42;1.90;99.90
12289;DHT22;6207;49.308;7.336;2023-03-12T08:38:09;2.10;99.90
12289;DHT22;6207;49.308;7.336;2023-03-12T08:40:36;2.10;99.90
12289;DHT22;6207;49.308;7.336;2023-03-12T08:43:03;2.40;99.90
12289;DHT22;6207;49.308;7.336;2023-03-12T08:45:30;2.60;99.90
12289;DHT22;6207;49.308;7.336;2023-03-12T08:47:57;2.50;99.90
12289;DHT22;6207;49.308;7.336;2023-03-12T08:50:24;2.50;99.90
12289;DHT22;6207;49.308;7.336;2023-03-12T08:52:54;2.80;99.90
12289;DHT22;6207;49.308;7.336;2023-03-12T08:55:21;3.10;99.90
12289;DHT22;6207;49.308;7.336;2023-03-12T08:57:48;3.20;99.90
12289;DHT22;6207;49.308;7.336;2023-03-12T09:00:15;3.00;99.90
12289;DHT22;6207;49.308;7.336;2023-03-12T09:02:44;3.20;99.90
12289;DHT22;6207;49.308;7.336;2023-03-12T09:05:11;3.00;99.90
12289;DHT22;6207;49.308;7.336;2023-03-12T09:07:38;3.10;99.90
12289;DHT22;6207;49.308;7.336;2023-03-12T09:10:05;3.10;99.90
12289;DHT22;6207;49.308;7.336;2023-03-12T09:12:32;3.20;99.90
12289;DHT22;6207;49.308;7.336;2023-03-12T09:14:59;3.20;99.90
12289;DHT22;6207;49.308;7.336;2023-03-12T09:17:30;3.40;99.90
12289;DHT22;6207;49.308;7.336;2023-03-12T09:19:56;3.70;99.90
12289;DHT22;6207;49.308;7.336;2023-03-12T09:22:23;4.00;99.90
12289;DHT22;6207;49.308;7.336;2023-03-12T09:24:50;3.90;99.90
12289;DHT22;6207;49.308;7.336;2023-03-12T09:27:17;3.90;99.90
12289;DHT22;6207;49.308;7.336;2023-03-12T09:29:43;4.10;99.90
12289;DHT22;6207;49.308;7.336;2023-03-12T09:32:25;4.40;99.90
12289;DHT22;6207;49.308;7.336;2023-03-12T09:34:53;4.20;99.90
12289;DHT22;6207;49.308;7.336;2023-03-12T09:37:20;4.20;99.90
12289;DHT22;6207;49.308;7.336;2023-03-12T09:39:50;4.10;99.90
12289;DHT22;6207;49.308;7.336;2023-03-12T09:42:26;4.00;99.90
12289;DHT22;6207;49.308;7.336;2023-03-12T09:44:59;4.10;99.90
12289;DHT22;6207;49.308;7.336;2023-03-12T09:47:34;4.20;99.90
12289;DHT22;6207;49.308;7.336;2023-03-12T09:50:22;4.30;99.90
12289;DHT22;6207;49.308;7.336;2023-03-12T09:52:59;4.50;99.90
12289;DHT22;6207;49.308;7.336;2023-03-12T09:55:37;4.50;99.90
12289;DHT22;6207;49.308;7.336;2023-03-12T09:58:11;4.60;99.90
12289;DHT22;6207;49.308;7.336;2023-03-12T10:00:38;4.60;99.90
12289;DHT22;6207;49.308;7.336;2023-03-12T10:14:10;4.50;99.90
12289;DHT22;6207;49.308;7.336;2023-03-12T10:28:27;4.90;99.90
12289;DHT22;6207;49.308;7.336;2023-03-12T10:30:58;5.60;99.90
12289;DHT22;6207;49.308;7.336;2023-03-12T10:33:38;6.00;99.90
12289;DHT22;6207;49.308;7.336;2023-03-12T10:36:41;6.20;99.90
12289;DHT22;6207;49.308;7.336;2023-03-12T10:39:14;6.40;99.90
12289;DHT22;6207;49.308;7.336;2023-03-12T10:41:43;6.40;99.90
12289;DHT22;6207;49.308;7.336;2023-03-12T10:44:19;6.10;99.90
12289;DHT22;6207;49.308;7.336;2023-03-12T10:47:15;6.20;99.90
12289;DHT22;6207;49.308;7.336;2023-03-12T10:49:44;6.20;99.90
12289;DHT22;6207;49.308;7.336;2023-03-12T10:52:18;6.40;99.90
12289;DHT22;6207;49.308;7.336;2023-03-12T10:54:47;6.60;99.90
12289;DHT22;6207;49.308;7.336;2023-03-12T10:57:16;6.70;99.90
12289;DHT22;6207;49.308;7.336;2023-03-12T10:59:46;6.90;99.90
12289;DHT22;6207;49.308;7.336;2023-03-12T11:02:34;7.30;99.90
12289;DHT22;6207;49.308;7.336;2023-03-12T11:05:35;7.70;99.90
12289;DHT22;6207;49.308;7.336;2023-03-12T11:08:11;8.10;99.90
12289;DHT22;6207;49.308;7.336;2023-03-12T11:10:45;8.40;99.90
12289;DHT22;6207;49.308;7.336;2023-03-12T11:15:52;8.70;99.90
12289;DHT22;6207;49.308;7.336;2023-03-12T11:18:23;8.80;99.90
12289;DHT22;6207;49.308;7.336;2023-03-12T11:21:14;9.70;99.90
12289;DHT22;6207;49.308;7.336;2023-03-12T11:26:37;11.20;99.90
12289;DHT22;6207;49.308;7.336;2023-03-12T11:29:30;10.80;99.90
12289;DHT22;6207;49.308;7.336;2023-03-12T11:32:17;9.90;99.90
12289;DHT22;6207;49.308;7.336;2023-03-12T11:34:46;9.70;99.90
12289;DHT22;6207;49.308;7.336;2023-03-12T11:39:55;9.90;99.90
12289;DHT22;6207;49.308;7.336;2023-03-12T11:42:37;10.10;99.90
12289;DHT22;6207;49.308;7.336;2023-03-12T11:48:08;10.50;99.90
12289;DHT22;6207;49.308;7.336;2023-03-12T11:51:00;10.60;99.90
12289;DHT22;6207;49.308;7.336;2023-03-12T11:54:13;10.80;99.90
12289;DHT22;6207;49.308;7.336;2023-03-12T11:56:33;10.80;99.90
12289;DHT22;6207;49.308;7.336;2023-03-12T11:59:06;10.80;99.90
12289;DHT22;6207;49.308;7.336;2023-03-12T12:09:35;10.70;99.90
12289;DHT22;6207;49.308;7.336;2023-03-12T12:14:59;11.20;99.90
12289;DHT22;6207;49.308;7.336;2023-03-12T12:17:33;11.00;99.90
12289;DHT22;6207;49.308;7.336;2023-03-12T12:20:11;10.80;99.90
12289;DHT22;6207;49.308;7.336;2023-03-12T12:25:30;10.40;99.90
12289;DHT22;6207;49.308;7.336;2023-03-12T12:28:20;10.20;99.90
12289;DHT22;6207;49.308;7.336;2023-03-12T12:31:09;10.20;99.90
12289;DHT22;6207;49.308;7.336;2023-03-12T12:36:35;10.30;99.90
12289;DHT22;6207;49.308;7.336;2023-03-12T12:39:16;10.40;99.90
12289;DHT22;6207;49.308;7.336;2023-03-12T12:41:51;10.40;99.90
12289;DHT22;6207;49.308;7.336;2023-03-12T12:44:32;10.40;99.90
12289;DHT22;6207;49.308;7.336;2023-03-12T12:47:03;10.40;99.90
12289;DHT22;6207;49.308;7.336;2023-03-12T12:52:06;11.20;99.90
12289;DHT22;6207;49.308;7.336;2023-03-12T12:57:28;11.60;99.90
12289;DHT22;6207;49.308;7.336;2023-03-12T13:02:27;11.40;99.90
12289;DHT22;6207;49.308;7.336;2023-03-12T13:05:00;11.50;99.90
12289;DHT22;6207;49.308;7.336;2023-03-12T13:07:27;11.60;99.90
12289;DHT22;6207;49.308;7.336;2023-03-12T13:09:58;11.70;99.90
12289;DHT22;6207;49.308;7.336;2023-03-12T13:12:49;11.70;99.90
12289;DHT22;6207;49.308;7.336;2023-03-12T13:20:32;11.20;99.90
12289;DHT22;6207;49.308;7.336;2023-03-12T13:36:35;11.50;99.90
12289;DHT22;6207;49.308;7.336;2023-03-12T13:41:35;11.90;99.90
12289;DHT22;6207;49.308;7.336;2023-03-12T13:47:26;11.80;99.90
12289;DHT22;6207;49.308;7.336;2023-03-12T13:49:59;11.80;99.90
12289;DHT22;6207;49.308;7.336;2023-03-12T13:52:47;11.80;99.90
12289;DHT22;6207;49.308;7.336;2023-03-12T13:55:26;11.90;99.90
12289;DHT22;6207;49.308;7.336;2023-03-12T13:57:56;11.80;99.90
12289;DHT22;6207;49.308;7.336;2023-03-12T14:00:28;11.80;99.90
12289;DHT22;6207;49.308;7.336;2023-03-12T14:03:02;11.90;99.90
12289;DHT22;6207;49.308;7.336;2023-03-12T14:05:43;11.90;99.90
12289;DHT22;6207;49.308;7.336;2023-03-12T14:08:23;11.90;99.90
12289;DHT22;6207;49.308;7.336;2023-03-12T14:13:43;11.90;99.90
12289;DHT22;6207;49.308;7.336;2023-03-12T14:16:34;11.80;99.90
12289;DHT22;6207;49.308;7.336;2023-03-12T14:19:04;11.80;99.90
12289;DHT22;6207;49.308;7.336;2023-03-12T14:21:37;11.70;99.90
12289;DHT22;6207;49.308;7.336;2023-03-12T14:24:06;11.50;99.90
12289;DHT22;6207;49.308;7.336;2023-03-12T14:26:35;11.40;99.90
12289;DHT22;6207;49.308;7.336;2023-03-12T14:29:34;11.40;99.90
12289;DHT22;6207;49.308;7.336;2023-03-12T14:32:04;11.40;99.90
12289;DHT22;6207;49.308;7.336;2023-03-12T14:34:42;11.40;99.90
12289;DHT22;6207;49.308;7.336;2023-03-12T14:37:21;11.40;99.90
12289;DHT22;6207;49.308;7.336;2023-03-12T14:40:02;11.30;99.90
12289;DHT22;6207;49.308;7.336;2023-03-12T14:42:34;11.30;99.90
12289;DHT22;6207;49.308;7.336;2023-03-12T14:45:09;11.10;99.90
12289;DHT22;6207;49.308;7.336;2023-03-12T14:47:45;11.10;99.90
12289;DHT22;6207;49.308;7.336;2023-03-12T14:50:20;11.10;99.90
12289;DHT22;6207;49.308;7.336;2023-03-12T14:52:47;11.10;99.90
12289;DHT22;6207;49.308;7.336;2023-03-12T14:55:18;11.20;99.90
12289;DHT22;6207;49.308;7.336;2023-03-12T14:57:45;11.20;99.90
12289;DHT22;6207;49.308;7.336;2023-03-12T15:00:26;11.20;99.90
12289;DHT22;6207;49.308;7.336;2023-03-12T15:02:55;11.20;99.90
12289;DHT22;6207;49.308;7.336;2023-03-12T15:05:23;11.30;99.90
12289;DHT22;6207;49.308;7.336;2023-03-12T15:08:00;11.30;99.90
12289;DHT22;6207;49.308;7.336;2023-03-12T15:10:28;11.40;99.90
12289;DHT22;6207;49.308;7.336;2023-03-12T15:12:58;11.60;99.90
12289;DHT22;6207;49.308;7.336;2023-03-12T15:15:47;11.40;99.90
12289;DHT22;6207;49.308;7.336;2023-03-12T15:18:22;11.40;99.90
12289;DHT22;6207;49.308;7.336;2023-03-12T15:20:50;11.40;99.90
12289;DHT22;6207;49.308;7.336;2023-03-12T15:23:20;11.50;99.90
12289;DHT22;6207;49.308;7.336;2023-03-12T15:26:06;11.60;99.90
12289;DHT22;6207;49.308;7.336;2023-03-12T15:28:33;11.60;99.90
12289;DHT22;6207;49.308;7.336;2023-03-12T15:31:14;11.60;99.90
12289;DHT22;6207;49.308;7.336;2023-03-12T15:33:43;11.60;99.90
12289;DHT22;6207;49.308;7.336;2023-03-12T15:38:51;11.60;99.90
12289;DHT22;6207;49.308;7.336;2023-03-12T15:41:28;11.70;99.90
12289;DHT22;6207;49.308;7.336;2023-03-12T15:43:58;11.60;99.90
12289;DHT22;6207;49.308;7.336;2023-03-12T15:46:26;11.60;99.90
12289;DHT22;6207;49.308;7.336;2023-03-12T15:48:55;11.50;99.90
12289;DHT22;6207;49.308;7.336;2023-03-12T15:51:34;11.40;99.90
12289;DHT22;6207;49.308;7.336;2023-03-12T15:54:05;11.40;99.90
12289;DHT22;6207;49.308;7.336;2023-03-12T15:56:46;11.40;99.90
12289;DHT22;6207;49.308;7.336;2023-03-12T15:59:26;11.30;99.90
12289;DHT22;6207;49.308;7.336;2023-03-12T16:01:55;11.30;99.90
12289;DHT22;6207;49.308;7.336;2023-03-12T16:04:22;11.30;99.90
12289;DHT22;6207;49.308;7.336;2023-03-12T16:06:50;11.30;99.90
12289;DHT22;6207;49.308;7.336;2023-03-12T16:09:25;11.40;99.90
12289;DHT22;6207;49.308;7.336;2023-03-12T16:11:54;11.30;99.90
12289;DHT22;6207;49.308;7.336;2023-03-12T16:14:32;11.30;99.90
12289;DHT22;6207;49.308;7.336;2023-03-12T16:16:59;11.30;99.90
12289;DHT22;6207;49.308;7.336;2023-03-12T16:19:28;11.20;99.90
12289;DHT22;6207;49.308;7.336;2023-03-12T16:21:55;11.20;99.90
12289;DHT22;6207;49.308;7.336;2023-03-12T16:24:22;11.20;99.90
12289;DHT22;6207;49.308;7.336;2023-03-12T16:26:54;11.10;99.90
12289;DHT22;6207;49.308;7.336;2023-03-12T16:29:26;11.10;99.90
12289;DHT22;6207;49.308;7.336;2023-03-12T16:31:57;11.20;99.90
12289;DHT22;6207;49.308;7.336;2023-03-12T16:34:24;11.10;99.90
12289;DHT22;6207;49.308;7.336;2023-03-12T16:36:51;11.10;99.90
12289;DHT22;6207;49.308;7.336;2023-03-12T16:39:18;11.20;99.90
12289;DHT22;6207;49.308;7.336;2023-03-12T16:41:46;11.20;99.90
12289;DHT22;6207;49.308;7.336;2023-03-12T16:44:16;11.20;99.90
12289;DHT22;6207;49.308;7.336;2023-03-12T16:46:44;11.10;99.90
12289;DHT22;6207;49.308;7.336;2023-03-12T16:49:16;11.20;99.90
12289;DHT22;6207;49.308;7.336;2023-03-12T16:51:43;11.10;99.90
12289;DHT22;6207;49.308;7.336;2023-03-12T16:54:10;11.10;99.90
12289;DHT22;6207;49.308;7.336;2023-03-12T16:56:41;11.10;99.90
12289;DHT22;6207;49.308;7.336;2023-03-12T16:59:26;11.10;99.90
12289;DHT22;6207;49.308;7.336;2023-03-12T17:01:54;11.00;99.90
12289;DHT22;6207;49.308;7.336;2023-03-12T17:04:22;11.00;99.90
12289;DHT22;6207;49.308;7.336;2023-03-12T17:06:49;11.10;99.90
12289;DHT22;6207;49.308;7.336;2023-03-12T17:09:15;11.10;99.90
12289;DHT22;6207;49.308;7.336;2023-03-12T17:11:42;11.00;99.90
12289;DHT22;6207;49.308;7.336;2023-03-12T17:14:20;10.90;99.90
12289;DHT22;6207;49.308;7.336;2023-03-12T17:16:48;11.10;99.90
12289;DHT22;6207;49.308;7.336;2023-03-12T17:19:15;11.00;99.90
12289;DHT22;6207;49.308;7.336;2023-03-12T17:21:42;11.00;99.90
12289;DHT22;6207;49.308;7.336;2023-03-12T17:24:10;10.80;99.90
12289;DHT22;6207;49.308;7.336;2023-03-12T17:26:40;10.90;99.90
12289;DHT22;6207;49.308;7.336;2023-03-12T17:29:07;11.00;99.90
12289;DHT22;6207;49.308;7.336;2023-03-12T17:31:33;10.80;99.90
12289;DHT22;6207;49.308;7.336;2023-03-12T17:34:03;10.80;99.90
12289;DHT22;6207;49.308;7.336;2023-03-12T17:36:30;10.80;99.90
12289;DHT22;6207;49.308;7.336;2023-03-12T17:38:56;10.80;99.90
12289;DHT22;6207;49.308;7.336;2023-03-12T17:41:23;10.90;99.90
12289;DHT22;6207;49.308;7.336;2023-03-12T17:43:53;11.00;99.90
12289;DHT22;6207;49.308;7.336;2023-03-12T17:46:20;10.90;99.90
12289;DHT22;6207;49.308;7.336;2023-03-12T17:48:47;11.10;99.90
12289;DHT22;6207;49.308;7.336;2023-03-12T17:51:14;11.00;99.90